Time;durP1;ratioP1;P1;durP2;ratioP2;P2;SDS_P1;SDS_P2;PMS_P1;PMS_P2;Temp;Humidity;BMP_temperature;BMP_pressure;BME280_temperature;BME280_humidity;BME280_pressure;Samples;Min_cycle;Max_cycle;Signal;HPM_P1;HPM_P2
2021/05/25 00:01:16;;;;;;;4.63;3.63;;;;;;;15.84;57.68;100250.58;125701;1096;101941;-83
2021/05/25 00:03:44;;;;;;;5.10;3.27;;;;;;;15.85;57.55;100244.27;125646;1096;103059;-87
2021/05/25 00:06:12;;;;;;;4.67;2.77;;;;;;;15.83;57.36;100234.55;125688;1101;102973;-86
2021/05/25 00:08:40;;;;;;;3.17;2.80;;;;;;;15.86;57.08;100239.75;125577;1096;103232;-87
2021/05/25 00:11:21;;;;;;;4.03;3.65;;;;;;;15.87;57.37;100231.64;125292;1105;103197;-87
2021/05/25 00:13:49;;;;;;;4.77;4.10;;;;;;;15.90;57.63;100221.67;125171;1104;103218;-86
2021/05/25 00:16:16;;;;;;;5.50;3.30;;;;;;;15.90;57.62;100224.36;125146;1098;103360;-86
2021/05/25 00:18:57;;;;;;;6.00;4.18;;;;;;;15.87;57.76;100215.53;125152;1104;103147;-86
2021/05/25 00:21:25;;;;;;;3.17;2.87;;;;;;;15.85;57.39;100217.41;125296;1104;103322;-82
2021/05/25 00:23:52;;;;;;;3.53;3.23;;;;;;;15.83;57.79;100223.80;125150;1099;103640;-87
2021/05/25 00:26:20;;;;;;;3.73;2.83;;;;;;;15.80;57.88;100224.83;125262;1104;103094;-87
2021/05/25 00:28:47;;;;;;;6.48;3.43;;;;;;;15.78;58.11;100221.34;125110;1104;103518;-83
2021/05/25 00:31:15;;;;;;;7.60;3.35;;;;;;;15.77;58.29;100222.27;125309;1104;103395;-87
2021/05/25 00:33:42;;;;;;;3.70;3.40;;;;;;;15.76;58.37;100223.22;125315;1104;103927;-86
2021/05/25 00:36:11;;;;;;;6.85;4.45;;;;;;;15.71;58.32;100222.58;125283;1104;103243;-87
2021/05/25 00:38:38;;;;;;;3.43;3.13;;;;;;;15.68;58.53;100222.74;125165;1099;103241;-83
2021/05/25 00:41:06;;;;;;;5.53;3.07;;;;;;;15.67;58.66;100223.68;125178;1105;103082;-91
2021/05/25 00:43:35;;;;;;;4.30;3.80;;;;;;;15.64;58.64;100226.53;125164;1099;103250;-82
2021/05/25 00:46:03;;;;;;;5.00;3.70;;;;;;;15.66;59.07;100224.62;125427;1104;103445;-83
2021/05/25 00:48:30;;;;;;;5.70;5.08;;;;;;;15.69;58.93;100221.80;125085;1100;103069;-86
2021/05/25 00:50:58;;;;;;;4.60;3.43;;;;;;;15.71;58.70;100230.63;125220;1101;102981;-92
2021/05/25 00:53:27;;;;;;;5.00;3.30;;;;;;;15.71;58.96;100225.26;125426;1096;103052;-88
2021/05/25 00:55:55;;;;;;;5.13;3.47;;;;;;;15.72;59.07;100224.32;125650;1101;102993;-87
2021/05/25 00:58:22;;;;;;;4.50;3.60;;;;;;;15.72;58.85;100221.64;125556;1101;103003;-86
2021/05/25 01:00:50;;;;;;;8.53;3.73;;;;;;;15.77;59.19;100221.39;125372;1101;102970;-88
2021/05/25 01:03:21;;;;;;;5.93;4.20;;;;;;;15.77;58.73;100211.53;125660;1101;103404;-85
2021/05/25 01:05:49;;;;;;;5.77;4.50;;;;;;;15.75;59.08;100210.73;125579;1101;103080;-84
2021/05/25 01:08:17;;;;;;;4.40;3.33;;;;;;;15.70;59.06;100212.78;125672;1101;103115;-85
2021/05/25 01:10:52;;;;;;;4.40;4.00;;;;;;;15.75;59.08;100221.47;125422;1101;103029;-85
2021/05/25 01:13:22;;;;;;;5.43;3.98;;;;;;;15.77;59.46;100216.91;125613;1101;103145;-86
2021/05/25 01:15:50;;;;;;;4.30;3.90;;;;;;;15.82;59.52;100216.69;125459;1096;103818;-82
2021/05/25 01:18:18;;;;;;;3.97;3.57;;;;;;;15.82;59.76;100209.52;125466;1101;103282;-86
2021/05/25 01:20:48;;;;;;;6.25;4.20;;;;;;;15.82;60.06;100212.20;125727;1101;103001;-87
2021/05/25 01:23:17;;;;;;;4.13;3.63;;;;;;;15.82;60.04;100206.83;125689;1096;103099;-83
2021/05/25 01:25:57;;;;;;;4.75;3.75;;;;;;;15.78;60.46;100209.70;125278;1101;103259;-85
2021/05/25 01:28:40;;;;;;;5.33;4.77;;;;;;;15.77;60.68;100192.73;125333;1101;103247;-84
2021/05/25 01:31:21;;;;;;;6.00;4.15;;;;;;;15.75;61.44;100178.51;125600;1104;104603;-85
2021/05/25 01:33:49;;;;;;;4.60;3.87;;;;;;;15.74;62.20;100160.69;125187;1098;103859;-85
2021/05/25 01:36:17;;;;;;;6.15;4.35;;;;;;;15.69;62.41;100142.12;125291;1104;103158;-87
2021/05/25 01:38:47;;;;;;;4.48;3.88;;;;;;;15.64;63.01;100130.74;125296;1104;103112;-88
2021/05/25 01:41:15;;;;;;;4.90;3.90;;;;;;;15.65;63.22;100123.58;125056;1105;103262;-84
2021/05/25 01:43:56;;;;;;;10.63;5.40;;;;;;;15.66;63.00;100122.60;124909;1100;103069;-84
2021/05/25 01:46:23;;;;;;;4.80;4.27;;;;;;;15.66;62.60;100128.86;124636;1107;103312;-86
2021/05/25 01:49:06;;;;;;;5.93;3.70;;;;;;;15.65;63.25;100134.31;124346;1108;103157;-86
2021/05/25 01:51:35;;;;;;;4.95;3.70;;;;;;;15.55;63.00;100125.84;124706;1102;103164;-86
2021/05/25 01:54:03;;;;;;;6.18;3.85;;;;;;;15.50;63.60;100115.36;124833;1100;103140;-84
2021/05/25 01:56:30;;;;;;;4.48;4.08;;;;;;;15.46;63.87;100108.42;125171;1100;103274;-86
2021/05/25 01:58:58;;;;;;;7.40;4.60;;;;;;;15.41;64.30;100107.78;125178;1099;103837;-84
2021/05/25 02:01:27;;;;;;;8.65;4.35;;;;;;;15.40;65.30;100121.28;125143;1104;103149;-87
2021/05/25 02:03:55;;;;;;;3.93;3.40;;;;;;;15.30;65.93;100128.91;125007;1104;103530;-89
2021/05/25 02:06:22;;;;;;;3.93;3.50;;;;;;;15.26;66.17;100141.63;124902;1105;103182;-86
2021/05/25 02:08:49;;;;;;;4.87;3.80;;;;;;;15.27;66.42;100140.66;125167;1101;103254;-83
2021/05/25 02:11:18;;;;;;;4.43;3.73;;;;;;;15.29;67.03;100140.61;125458;1101;103075;-82
2021/05/25 02:13:46;;;;;;;7.40;4.80;;;;;;;15.21;66.99;100139.16;125523;1101;103155;-84
2021/05/25 02:16:27;;;;;;;4.60;4.10;;;;;;;15.18;67.84;100149.17;125507;1101;103454;-83
2021/05/25 02:18:55;;;;;;;5.93;4.73;;;;;;;15.12;68.80;100144.13;125187;1102;103003;-85
2021/05/25 02:21:22;;;;;;;4.33;3.93;;;;;;;15.03;69.25;100151.69;125434;1101;103102;-84
2021/05/25 02:23:50;;;;;;;5.03;4.63;;;;;;;14.96;69.16;100134.14;125607;1096;103048;-90
2021/05/25 02:26:19;;;;;;;8.17;4.53;;;;;;;14.89;70.29;100130.03;125443;1101;103229;-86
2021/05/25 02:29:00;;;;;;;4.83;4.23;;;;;;;14.80;70.45;100141.20;124799;1104;103240;-87
2021/05/25 02:31:28;;;;;;;6.35;4.13;;;;;;;14.75;70.93;100144.09;125051;1104;103134;-87
2021/05/25 02:33:55;;;;;;;4.57;4.17;;;;;;;14.72;72.18;100141.56;124989;1100;103140;-82
2021/05/25 02:36:23;;;;;;;8.45;4.55;;;;;;;14.59;72.13;100143.05;125247;1104;103400;-87
2021/05/25 02:38:50;;;;;;;6.80;3.25;;;;;;;14.53;72.69;100126.32;125652;1099;103743;-87
2021/05/25 02:41:18;;;;;;;6.50;4.07;;;;;;;14.47;73.45;100123.92;125824;1104;103141;-86
2021/05/25 02:43:45;;;;;;;4.07;3.77;;;;;;;14.47;73.51;100123.92;125050;1104;103347;-86
2021/05/25 02:46:13;;;;;;;5.17;4.60;;;;;;;14.37;73.87;100122.63;125085;1099;103279;-87
2021/05/25 02:48:40;;;;;;;5.23;4.40;;;;;;;14.30;73.80;100115.80;125184;1099;103163;-86
2021/05/25 02:51:07;;;;;;;4.10;3.47;;;;;;;14.18;74.77;100109.20;125100;1099;103232;-87
2021/05/25 02:53:35;;;;;;;4.50;4.00;;;;;;;14.11;74.65;100111.29;125004;1099;103288;-84
2021/05/25 02:56:03;;;;;;;5.53;4.37;;;;;;;14.04;75.64;100116.05;124867;1104;103952;-86
2021/05/25 02:58:30;;;;;;;4.67;3.70;;;;;;;14.00;75.92;100108.25;125526;1104;103186;-85
2021/05/25 03:00:58;;;;;;;4.30;3.33;;;;;;;14.01;76.28;100105.50;125412;1104;103029;-87
2021/05/25 03:03:39;;;;;;;4.55;3.95;;;;;;;14.00;76.76;100098.39;125899;1104;103237;-84
2021/05/25 03:06:20;;;;;;;3.63;3.17;;;;;;;14.01;76.61;100093.93;125190;1100;102991;-85
2021/05/25 03:08:47;;;;;;;4.33;3.78;;;;;;;13.98;76.70;100086.91;125494;1104;103247;-86
2021/05/25 03:11:15;;;;;;;5.30;3.77;;;;;;;13.98;77.12;100088.69;125718;1096;103058;-86
2021/05/25 03:13:42;;;;;;;4.20;3.00;;;;;;;13.93;77.69;100072.85;125604;1101;103074;-83
2021/05/25 03:16:23;;;;;;;4.57;3.07;;;;;;;13.93;77.42;100061.25;125161;1103;103071;-85
2021/05/25 03:18:51;;;;;;;3.00;2.80;;;;;;;13.97;77.52;100061.06;125990;1101;103192;-85
2021/05/25 03:21:18;;;;;;;9.03;3.88;;;;;;;14.00;77.26;100065.41;125771;1102;103206;-84
2021/05/25 03:23:46;;;;;;;4.13;2.97;;;;;;;13.95;77.63;100070.10;125626;1104;103184;-85
2021/05/25 03:26:13;;;;;;;3.23;2.95;;;;;;;13.93;77.90;100070.17;125734;1101;102998;-86
2021/05/25 03:28:41;;;;;;;3.63;3.20;;;;;;;13.91;78.08;100072.04;125813;1101;102978;-87
2021/05/25 03:31:08;;;;;;;5.10;3.53;;;;;;;13.96;78.15;100074.52;126201;1101;103494;-86
2021/05/25 03:33:35;;;;;;;4.15;3.13;;;;;;;13.96;78.29;100066.49;125739;1101;103177;-85
2021/05/25 03:36:03;;;;;;;7.00;4.90;;;;;;;13.93;78.07;100067.50;125901;1101;103247;-85
2021/05/25 03:38:31;;;;;;;6.20;3.23;;;;;;;13.91;78.52;100077.39;125554;1101;103140;-82
2021/05/25 03:41:12;;;;;;;4.55;3.55;;;;;;;13.90;79.10;100069.44;126161;1104;103400;-84
2021/05/25 03:43:39;;;;;;;4.20;3.53;;;;;;;13.89;78.61;100071.26;125608;1104;103418;-84
2021/05/25 03:46:07;;;;;;;3.27;2.97;;;;;;;13.92;79.15;100065.75;125343;1097;103115;-86
2021/05/25 03:48:34;;;;;;;4.57;3.97;;;;;;;13.87;78.92;100071.33;125450;1103;103027;-83
2021/05/25 03:51:01;;;;;;;2.90;2.63;;;;;;;13.83;79.53;100066.17;125467;1097;103088;-87
2021/05/25 03:53:31;;;;;;;4.90;4.40;;;;;;;13.82;79.34;100061.75;125364;1104;103675;-82
2021/05/25 03:56:28;;;;;;;4.40;3.07;;;;;;;13.82;79.67;100056.39;125225;1104;103107;-83
2021/05/25 03:58:53;;;;;;;3.80;3.50;;;;;;;13.79;79.67;100052.05;125289;1103;103795;-87
2021/05/25 04:01:26;;;;;;;5.60;3.60;;;;;;;13.79;79.52;100046.69;125356;1104;103032;-83
2021/05/25 04:03:55;;;;;;;3.20;2.93;;;;;;;13.84;79.86;100047.36;125246;1102;103082;-84
2021/05/25 04:06:23;;;;;;;4.50;3.98;;;;;;;13.88;79.48;100040.92;125362;1101;103109;-82
2021/05/25 04:08:50;;;;;;;3.95;3.53;;;;;;;13.89;79.72;100039.13;125313;1101;103059;-83
2021/05/25 04:11:18;;;;;;;4.10;3.67;;;;;;;13.94;79.31;100045.15;125257;1102;103140;-82
2021/05/25 04:13:59;;;;;;;3.10;2.80;;;;;;;13.97;79.73;100036.97;125302;1104;103057;-82
2021/05/25 04:16:27;;;;;;;4.43;4.03;;;;;;;14.01;79.31;100040.38;125287;1097;103518;-82
2021/05/25 04:19:08;;;;;;;6.25;3.63;;;;;;;14.05;79.11;100034.80;125458;1104;103065;-83
2021/05/25 04:21:35;;;;;;;3.95;3.55;;;;;;;14.12;79.40;100032.70;125364;1101;103444;-82
2021/05/25 04:24:03;;;;;;;4.83;3.70;;;;;;;14.08;79.31;100030.25;125262;1103;103377;-84
2021/05/25 04:26:31;;;;;;;3.88;3.00;;;;;;;14.08;79.66;100035.61;125346;1096;103089;-82
2021/05/25 04:29:12;;;;;;;3.73;3.43;;;;;;;14.01;79.57;100033.20;125265;1101;103233;-85
2021/05/25 04:31:45;;;;;;;3.90;2.77;;;;;;;13.96;79.96;100037.04;125204;1104;102958;-84
2021/05/25 04:34:26;;;;;;;3.73;3.38;;;;;;;13.94;80.29;100030.88;125436;1101;103324;-86
2021/05/25 04:36:54;;;;;;;4.43;3.63;;;;;;;13.92;80.53;100036.30;125731;1104;103076;-84
2021/05/25 04:39:24;;;;;;;4.48;3.90;;;;;;;13.95;79.99;100033.47;125148;1097;103129;-84
2021/05/25 04:42:05;;;;;;;4.83;3.70;;;;;;;13.93;80.19;100038.05;125341;1097;103364;-85
2021/05/25 04:44:33;;;;;;;5.93;3.88;;;;;;;13.99;79.76;100028.86;125371;1096;103107;-90
2021/05/25 04:47:01;;;;;;;4.80;4.00;;;;;;;14.07;79.98;100039.22;125551;1101;102972;-88
2021/05/25 04:49:42;;;;;;;4.70;3.80;;;;;;;14.10;79.62;100031.92;125711;1101;103436;-86
2021/05/25 04:52:10;;;;;;;4.20;3.10;;;;;;;14.13;79.75;100031.77;125683;1101;103099;-88
2021/05/25 04:54:37;;;;;;;4.37;3.53;;;;;;;14.07;79.62;100034.72;125716;1101;103085;-83
2021/05/25 04:57:18;;;;;;;5.83;4.27;;;;;;;14.08;79.73;100035.61;125593;1101;103129;-88
2021/05/25 04:59:46;;;;;;;3.95;3.45;;;;;;;14.14;79.69;100038.86;125679;1096;103078;-83
2021/05/25 05:02:14;;;;;;;7.05;4.35;;;;;;;14.16;79.58;100045.00;125427;1101;103789;-83
2021/05/25 05:04:42;;;;;;;7.67;3.97;;;;;;;14.21;79.46;100056.37;125487;1096;103001;-88
2021/05/25 05:07:23;;;;;;;3.40;3.10;;;;;;;14.18;79.09;100048.48;124999;1096;103090;-84
2021/05/25 05:09:50;;;;;;;6.07;3.50;;;;;;;14.16;79.44;100061.06;125064;1097;103417;-82
2021/05/25 05:12:18;;;;;;;6.77;5.60;;;;;;;14.21;79.33;100058.19;125148;1101;103171;-84
2021/05/25 05:14:45;;;;;;;4.20;3.80;;;;;;;14.23;79.10;100048.26;125171;1101;103072;-81
2021/05/25 05:17:13;;;;;;;3.93;3.53;;;;;;;14.27;78.88;100051.67;125144;1101;103234;-84
2021/05/25 05:19:40;;;;;;;4.28;3.98;;;;;;;14.32;78.39;100060.36;124892;1097;103182;-85
2021/05/25 05:22:07;;;;;;;4.43;3.97;;;;;;;14.35;78.40;100058.41;125246;1096;103057;-87
2021/05/25 05:24:35;;;;;;;4.40;4.00;;;;;;;14.37;78.44;100047.63;125255;1101;103080;-86
2021/05/25 05:27:02;;;;;;;3.50;3.15;;;;;;;14.38;78.45;100055.58;124800;1101;103208;-85
2021/05/25 05:29:30;;;;;;;3.90;3.60;;;;;;;14.43;78.36;100058.02;124919;1097;103087;-85
2021/05/25 05:32:04;;;;;;;5.17;4.27;;;;;;;14.45;78.16;100050.80;125339;1101;103059;-86
2021/05/25 05:34:46;;;;;;;4.40;4.00;;;;;;;14.50;78.24;100054.13;125451;1101;103151;-84
2021/05/25 05:37:27;;;;;;;4.43;3.53;;;;;;;14.54;78.39;100053.03;125378;1101;103646;-85
2021/05/25 05:39:54;;;;;;;6.33;4.23;;;;;;;14.52;77.93;100048.69;125012;1104;103319;-83
2021/05/25 05:42:35;;;;;;;4.80;4.20;;;;;;;14.55;78.55;100051.20;125318;1102;103447;-82
2021/05/25 05:45:04;;;;;;;6.00;4.48;;;;;;;14.49;78.71;100046.16;125260;1101;103051;-83
2021/05/25 05:47:32;;;;;;;4.27;3.50;;;;;;;14.49;78.46;100049.70;125166;1102;103712;-82
2021/05/25 05:49:59;;;;;;;7.33;5.13;;;;;;;14.54;78.78;100050.34;125228;1101;103183;-82
2021/05/25 05:52:27;;;;;;;4.77;3.33;;;;;;;14.57;78.56;100051.13;125366;1101;103112;-81
2021/05/25 05:54:54;;;;;;;4.13;3.73;;;;;;;14.61;78.65;100055.39;125422;1101;103077;-81
2021/05/25 05:57:21;;;;;;;6.83;4.27;;;;;;;14.57;78.59;100048.45;125031;1096;103075;-81
2021/05/25 05:59:49;;;;;;;4.83;3.50;;;;;;;14.45;79.28;100042.75;125568;1101;103112;-83
2021/05/25 06:02:16;;;;;;;4.08;3.65;;;;;;;14.44;79.34;100034.80;125371;1101;103510;-81
2021/05/25 06:04:43;;;;;;;5.75;3.70;;;;;;;14.45;79.50;100037.39;125570;1101;103098;-83
2021/05/25 06:07:31;;;;;;;4.50;4.10;;;;;;;14.50;79.70;100035.37;125451;1096;103337;-83
2021/05/25 06:10:01;;;;;;;3.80;3.27;;;;;;;14.47;79.92;100038.17;125675;1101;103271;-82
2021/05/25 06:12:30;;;;;;;4.68;3.95;;;;;;;14.52;79.49;100035.29;125226;1101;103163;-83
2021/05/25 06:14:58;;;;;;;5.68;3.28;;;;;;;14.49;79.39;100033.63;125562;1096;102976;-82
2021/05/25 06:17:26;;;;;;;5.53;3.90;;;;;;;14.46;80.03;100035.58;125547;1101;102998;-82
2021/05/25 06:19:54;;;;;;;3.27;2.93;;;;;;;14.42;80.23;100037.55;125655;1101;103398;-80
2021/05/25 06:22:35;;;;;;;4.90;3.30;;;;;;;14.39;80.12;100040.36;125666;1101;102981;-81
2021/05/25 06:25:06;;;;;;;7.25;5.53;;;;;;;14.43;80.31;100041.09;125171;1096;103279;-83
2021/05/25 06:27:35;;;;;;;5.63;4.07;;;;;;;14.48;80.29;100039.06;125820;1101;103648;-81
2021/05/25 06:30:06;;;;;;;4.30;3.90;;;;;;;14.52;80.31;100041.50;125718;1096;103489;-83
2021/05/25 06:32:47;;;;;;;9.13;6.30;;;;;;;14.50;80.06;100037.16;126332;1101;103051;-81
2021/05/25 06:35:28;;;;;;;4.37;4.07;;;;;;;14.49;80.14;100030.09;124505;1096;103697;-83
2021/05/25 06:37:57;;;;;;;4.68;3.50;;;;;;;14.54;80.43;100039.63;125496;1102;103455;-83
2021/05/25 06:40:38;;;;;;;5.25;3.75;;;;;;;14.55;80.50;100033.34;125211;1102;103103;-81
2021/05/25 06:43:05;;;;;;;4.07;3.67;;;;;;;14.66;79.96;100027.48;125611;1096;103603;-81
2021/05/25 06:45:33;;;;;;;4.10;3.17;;;;;;;14.69;80.18;100029.14;125643;1101;103062;-82
2021/05/25 06:48:00;;;;;;;4.18;3.60;;;;;;;14.69;79.58;100030.00;125319;1101;103048;-80
2021/05/25 06:50:28;;;;;;;6.40;3.75;;;;;;;14.69;79.84;100027.31;124948;1101;103355;-78
2021/05/25 06:52:55;;;;;;;5.70;3.48;;;;;;;14.73;79.75;100021.80;125048;1096;103108;-81
2021/05/25 06:55:23;;;;;;;4.40;3.10;;;;;;;14.80;80.04;100024.09;124595;1101;103121;-82
2021/05/25 06:57:51;;;;;;;4.70;3.33;;;;;;;14.82;79.69;100030.27;124915;1102;103235;-81
2021/05/25 07:00:19;;;;;;;4.70;4.07;;;;;;;14.81;79.53;100020.48;125740;1096;103002;-82
2021/05/25 07:02:47;;;;;;;5.73;4.50;;;;;;;14.82;80.13;100026.70;125324;1101;103113;-83
2021/05/25 07:05:15;;;;;;;5.43;4.88;;;;;;;14.93;80.15;100024.36;125206;1096;103206;-83
2021/05/25 07:07:42;;;;;;;3.90;3.37;;;;;;;14.99;79.85;100021.34;125616;1101;102976;-82
2021/05/25 07:10:10;;;;;;;5.78;3.95;;;;;;;15.07;79.74;100023.64;125573;1096;103211;-81
2021/05/25 07:12:38;;;;;;;4.70;3.48;;;;;;;15.18;79.54;100015.93;125355;1102;105798;-84
2021/05/25 07:15:07;;;;;;;5.75;3.63;;;;;;;15.30;79.23;100018.91;125693;1101;103027;-82
2021/05/25 07:17:35;;;;;;;4.98;3.25;;;;;;;15.41;78.48;100018.34;125526;1101;102959;-82
2021/05/25 07:20:04;;;;;;;4.08;3.78;;;;;;;15.46;78.58;100017.17;125575;1096;103031;-83
2021/05/25 07:22:34;;;;;;;3.80;2.90;;;;;;;15.57;78.45;100015.71;125661;1096;103093;-84
2021/05/25 07:25:02;;;;;;;3.03;2.40;;;;;;;15.62;77.66;100016.34;125584;1101;103147;-81
2021/05/25 07:27:30;;;;;;;2.78;2.33;;;;;;;15.59;77.66;100014.69;125636;1096;103585;-82
2021/05/25 07:29:58;;;;;;;3.77;2.97;;;;;;;15.60;78.58;100018.25;124798;1097;103230;-80
2021/05/25 07:32:27;;;;;;;2.80;2.60;;;;;;;15.63;77.63;100013.56;125153;1101;103219;-82
2021/05/25 07:34:55;;;;;;;3.78;3.30;;;;;;;15.66;78.52;100016.11;125463;1101;103043;-83
2021/05/25 07:37:22;;;;;;;5.58;3.08;;;;;;;15.66;77.38;100020.59;125586;1101;103173;-81
2021/05/25 07:39:50;;;;;;;5.97;3.60;;;;;;;15.59;77.02;100008.46;125261;1102;103222;-80
2021/05/25 07:42:17;;;;;;;4.90;3.33;;;;;;;15.61;76.87;100015.48;125213;1101;103211;-78
2021/05/25 07:44:45;;;;;;;9.20;4.23;;;;;;;15.72;76.65;100006.84;125471;1096;103091;-83
2021/05/25 07:47:12;;;;;;;12.53;3.65;;;;;;;15.83;77.70;100014.34;125521;1101;103084;-82
2021/05/25 07:49:40;;;;;;;3.35;2.80;;;;;;;15.95;76.83;100013.67;125446;1096;103171;-84
2021/05/25 07:52:08;;;;;;;3.15;2.68;;;;;;;16.03;76.76;100018.63;125864;1101;103126;-83
2021/05/25 07:54:36;;;;;;;4.07;2.97;;;;;;;16.14;76.27;100002.80;125587;1101;103077;-83
2021/05/25 07:57:05;;;;;;;4.67;3.23;;;;;;;16.26;75.68;100000.36;125855;1101;103188;-83
2021/05/25 07:59:33;;;;;;;3.63;2.93;;;;;;;16.34;75.84;100000.78;125568;1101;103210;-82
2021/05/25 08:02:01;;;;;;;3.90;3.00;;;;;;;16.49;74.55;99996.38;125688;1101;103088;-83
2021/05/25 08:04:28;;;;;;;6.57;3.53;;;;;;;16.54;74.22;99995.14;125610;1101;103109;-81
2021/05/25 08:06:56;;;;;;;5.55;3.35;;;;;;;16.51;73.60;99989.07;125451;1096;103117;-80
2021/05/25 08:09:24;;;;;;;3.30;2.98;;;;;;;16.50;74.17;99987.33;125786;1101;103521;-81
2021/05/25 08:11:52;;;;;;;3.60;3.30;;;;;;;16.45;73.30;99990.30;125473;1101;103238;-80
2021/05/25 08:14:20;;;;;;;3.30;2.30;;;;;;;16.49;73.92;99994.54;125353;1096;103080;-80
2021/05/25 08:16:47;;;;;;;3.23;2.83;;;;;;;16.49;73.10;99994.54;125126;1101;103192;-82
2021/05/25 08:19:29;;;;;;;5.30;3.08;;;;;;;16.51;73.07;99981.01;125502;1101;103151;-83
2021/05/25 08:21:58;;;;;;;3.13;2.48;;;;;;;16.52;72.70;99990.81;125557;1101;103147;-82
2021/05/25 08:24:42;;;;;;;3.65;3.15;;;;;;;16.51;72.62;100000.71;125582;1101;103221;-81
2021/05/25 08:27:10;;;;;;;3.93;3.57;;;;;;;16.47;73.30;100000.95;125063;1101;102980;-82
2021/05/25 08:30:01;;;;;;;2.77;2.47;;;;;;;16.47;72.98;99995.58;125074;1101;103805;-81
2021/05/25 08:32:29;;;;;;;5.48;2.90;;;;;;;16.52;73.00;99983.60;124619;1101;103312;-82
2021/05/25 08:35:11;;;;;;;5.05;2.53;;;;;;;16.53;72.16;99988.03;125236;1105;103058;-82
2021/05/25 08:37:57;;;;;;;2.58;2.25;;;;;;;16.53;72.76;99996.09;125178;1104;103144;-83
2021/05/25 08:40:25;;;;;;;5.13;2.90;;;;;;;16.63;73.26;100000.94;124980;1104;103248;-84
2021/05/25 08:42:53;;;;;;;6.07;3.30;;;;;;;16.69;72.93;99998.77;125090;1098;103079;-84
2021/05/25 08:45:21;;;;;;;2.63;2.43;;;;;;;16.52;72.37;100001.56;124467;1104;103218;-79
2021/05/25 08:48:03;;;;;;;6.03;2.70;;;;;;;16.45;72.50;100000.20;124845;1096;103157;-81
2021/05/25 08:50:45;;;;;;;2.90;2.60;;;;;;;16.35;73.31;99991.77;124630;1104;103368;-79
2021/05/25 08:53:19;;;;;;;4.53;2.80;;;;;;;16.34;73.04;99998.09;124623;1105;103168;-81
2021/05/25 08:55:50;;;;;;;4.57;2.77;;;;;;;16.32;73.20;100000.88;125218;1104;103526;-79
2021/05/25 08:58:18;;;;;;;3.18;2.88;;;;;;;16.29;72.44;100006.43;125202;1101;103227;-78
2021/05/25 09:00:47;;;;;;;3.97;2.60;;;;;;;16.23;72.69;100005.91;125080;1101;103081;-80
2021/05/25 09:03:16;;;;;;;4.73;3.00;;;;;;;16.20;72.26;100002.43;125464;1097;103143;-79
2021/05/25 09:06:07;;;;;;;4.28;3.43;;;;;;;16.20;71.42;100006.95;124909;1097;103192;-78
2021/05/25 09:08:36;;;;;;;3.73;2.85;;;;;;;16.19;72.15;100002.52;125485;1101;103234;-82
2021/05/25 09:11:12;;;;;;;3.18;2.80;;;;;;;16.30;72.09;100012.66;124919;1102;103795;-79
2021/05/25 09:13:40;;;;;;;4.13;3.73;;;;;;;16.34;71.60;100016.91;127601;1101;101430;-82
2021/05/25 09:16:21;;;;;;;5.03;2.85;;;;;;;16.42;72.21;100014.67;125510;1096;103051;-81
2021/05/25 09:18:49;;;;;;;3.35;2.85;;;;;;;16.36;71.18;100023.08;125212;1096;103080;-80
2021/05/25 09:21:35;;;;;;;3.53;3.23;;;;;;;16.17;70.91;100034.85;125231;1101;103788;-88
2021/05/25 09:24:03;;;;;;;5.60;3.35;;;;;;;16.10;71.73;100025.41;125711;1101;103058;-81
2021/05/25 09:26:35;;;;;;;5.10;3.80;;;;;;;16.14;71.11;100026.09;125173;1101;103094;-82
2021/05/25 09:29:17;;;;;;;5.73;4.17;;;;;;;16.16;71.68;100025.05;125890;1096;103042;-79
2021/05/25 09:32:06;;;;;;;4.47;3.27;;;;;;;16.29;71.23;100024.39;125333;1102;103190;-82
2021/05/25 09:34:33;;;;;;;4.90;4.48;;;;;;;16.36;70.65;100023.08;125516;1101;103195;-81
2021/05/25 09:37:09;;;;;;;4.33;3.88;;;;;;;16.40;70.71;100026.47;125322;1096;103062;-84
2021/05/25 09:39:42;;;;;;;5.27;4.77;;;;;;;16.51;70.87;100024.91;125398;1101;103199;-83
2021/05/25 09:42:12;;;;;;;7.60;3.80;;;;;;;16.52;71.03;100025.76;125464;1096;103052;-84
2021/05/25 09:45:04;;;;;;;4.63;4.17;;;;;;;16.50;70.09;100023.16;125643;1101;104095;-84
2021/05/25 09:47:53;;;;;;;6.98;4.30;;;;;;;16.48;69.83;100018.83;125591;1096;103984;-83
2021/05/25 09:50:39;;;;;;;6.10;5.50;;;;;;;16.59;69.52;100024.44;126084;1096;103117;-83
2021/05/25 09:53:09;;;;;;;6.58;4.63;;;;;;;16.76;68.88;100022.62;126009;1096;103779;-80
2021/05/25 09:55:54;;;;;;;6.90;4.30;;;;;;;17.22;68.03;100017.24;125594;1096;103254;-80
2021/05/25 09:58:24;;;;;;;6.73;4.50;;;;;;;18.99;63.06;100010.54;125668;1101;103379;-81
2021/05/25 10:00:53;;;;;;;4.93;3.90;;;;;;;20.55;59.04;100004.05;125463;1101;103103;-87
2021/05/25 10:03:23;;;;;;;4.00;3.70;;;;;;;22.05;56.71;100003.41;125548;1096;103142;-83
2021/05/25 10:05:54;;;;;;;5.27;4.77;;;;;;;23.09;51.01;100006.60;125365;1104;103248;-81
2021/05/25 10:08:23;;;;;;;5.20;3.90;;;;;;;23.99;51.25;100001.61;125252;1101;101996;-87
2021/05/25 10:11:06;;;;;;;4.13;3.57;;;;;;;24.20;49.44;99999.70;125089;1104;103235;-85
2021/05/25 10:13:35;;;;;;;4.30;3.63;;;;;;;23.80;46.66;100002.36;125212;1099;103101;-83
2021/05/25 10:16:05;;;;;;;5.58;3.75;;;;;;;23.88;47.90;100000.69;124885;1104;103262;-80
2021/05/25 10:21:14;;;;;;;4.37;3.67;;;;;;;24.75;44.26;100000.25;124703;1104;103061;-79
2021/05/25 10:23:43;;;;;;;3.60;3.30;;;;;;;25.28;43.43;100002.52;124468;1104;103184;-81
2021/05/25 10:26:17;;;;;;;4.37;3.53;;;;;;;25.29;46.07;100000.68;125979;1104;103237;-83
2021/05/25 10:28:49;;;;;;;5.53;3.40;;;;;;;25.42;43.76;100003.11;124784;1099;103234;-84
2021/05/25 10:31:28;;;;;;;3.53;3.03;;;;;;;25.35;42.06;99998.27;125109;1104;103996;-80
2021/05/25 10:34:18;;;;;;;3.17;2.97;;;;;;;24.62;43.51;99992.31;125247;1104;103234;-82
2021/05/25 10:36:58;;;;;;;3.63;2.90;;;;;;;24.70;43.76;100000.69;125118;1100;103311;-82
2021/05/25 10:39:44;;;;;;;2.60;2.40;;;;;;;24.07;43.08;100001.77;125664;1098;103129;-82
2021/05/25 10:42:27;;;;;;;3.20;2.53;;;;;;;23.29;43.63;100004.92;125028;1105;103304;-79
2021/05/25 10:45:10;;;;;;;4.55;2.90;;;;;;;22.75;44.97;100006.73;125148;1098;103090;-80
2021/05/25 10:50:34;;;;;;;2.90;2.57;;;;;;;23.03;46.09;100002.56;125202;1100;103193;-82
2021/05/25 10:53:04;;;;;;;6.05;3.10;;;;;;;23.06;45.73;99998.73;125115;1104;103248;-82
2021/05/25 10:55:42;;;;;;;3.33;2.85;;;;;;;22.77;46.69;99987.63;125187;1100;103059;-83
2021/05/25 10:58:35;;;;;;;3.80;2.30;;;;;;;22.45;46.19;99992.02;125101;1099;103167;-81
2021/05/25 11:01:08;;;;;;;3.50;2.53;;;;;;;22.14;46.05;100004.48;125202;1105;103130;-82
2021/05/25 11:03:36;;;;;;;2.77;2.13;;;;;;;22.12;48.51;100001.91;125002;1104;103486;-85
2021/05/25 11:06:06;;;;;;;3.20;2.40;;;;;;;21.91;46.78;99996.36;125161;1099;103792;-85
2021/05/25 11:08:38;;;;;;;2.13;1.93;;;;;;;21.65;47.05;100001.18;125124;1104;103246;-82
2021/05/25 11:11:43;;;;;;;2.23;2.03;;;;;;;21.38;45.98;100000.48;124789;1100;103285;-83
2021/05/25 11:14:12;;;;;;;2.53;2.10;;;;;;;21.25;47.97;99994.30;125234;1100;103271;-80
2021/05/25 11:16:40;;;;;;;2.25;2.05;;;;;;;21.36;47.96;100001.58;125154;1105;102160;-82
2021/05/25 11:19:12;;;;;;;3.23;2.50;;;;;;;21.48;48.31;99997.05;124753;1107;103125;-82
2021/05/25 11:24:33;;;;;;;2.87;2.20;;;;;;;21.29;47.62;99993.08;125269;1099;103278;-80
2021/05/25 11:27:06;;;;;;;3.90;2.30;;;;;;;21.30;47.93;99988.50;125079;1105;103261;-79
2021/05/25 11:29:38;;;;;;;2.70;2.28;;;;;;;21.23;48.00;99988.13;124690;1097;103091;-79
2021/05/25 11:32:16;;;;;;;3.97;2.23;;;;;;;21.22;48.54;99986.42;124947;1101;103083;-80
2021/05/25 11:34:43;;;;;;;2.10;1.90;;;;;;;21.17;48.10;99978.64;125417;1101;103469;-80
2021/05/25 11:37:17;;;;;;;2.53;2.15;;;;;;;21.16;47.35;99990.44;125590;1101;102975;-79